Mettler, Australia
Current Conditions -  °F | °C
As of 5:00 AM on Sunday 26 Oct 2014 (Local Time) from YABA Reporting Station
Overcast Overcast  
Wind Chill: 55°   Ceiling: 2700
Heat Index: 55°   Visibility: 2.8mi
Dew Point: 54°   Wind: 12mph
Humidity: 94%   Direction: 290°WNW
Pressure: 30"   Gusts: NA
Location:  34.59°S, 118.44°E
Report Text: YABA 252100Z AUTO 29010KT 4600 // SCT012 BKN027 OVC045 13/12 Q1016
Loading
Personal Weather Stations






























Interactive Weather Map
Tropical Storm Tracking
New forecast layout! Learn more

10-Day Weather Forecast

Advertisements
Track Severe Weather on mobile